CheckWX is a tool to help pilots better visualize weather data.  It is not intended as a substitute for an official pre-flight weather briefing.

23:57:04 UTC

OMDB METAR
Dubai International Airport
Dubai, United Arab Emirates
Current

57 mins ago

OMDB 222300Z 13012KT CAVOK 21/15 Q1016 NOSIG
Observed
Jan-22 @ 23:00 UTC
Wind
  • 130° at 12 KTS
Visibility
10,000+ meters
Flight Rules
VFR
Cloud Levels
  • Clear skies
Temperature
21°C / 70°F
Dewpoint
15°C / 59°F
Humidity
69%
Altimeter
30" Hg
Pressure
1015.92 hPa
Previous

2 hours ago

OMDB 222200Z 12011G24KT CAVOK 20/14 Q1016 NOSIG
Observed
Jan-22 @ 22:00 UTC
Wind
  • 120° at 11 KTS
  • Gusting to 24 KTS
Visibility
10,000+ meters
Flight Rules
VFR
Cloud Levels
  • Clear skies
Temperature
20°C / 68°F
Dewpoint
14°C / 57°F
Humidity
69%
Altimeter
30" Hg
Pressure
1015.92 hPa
Previous

3 hours ago

OMDB 222100Z 11009KT CAVOK 21/14 Q1016 NOSIG
Observed
Jan-22 @ 21:00 UTC
Wind
  • 110° at 9 KTS
Visibility
10,000+ meters
Flight Rules
VFR
Cloud Levels
  • Clear skies
Temperature
21°C / 70°F
Dewpoint
14°C / 57°F
Humidity
64%
Altimeter
30" Hg
Pressure
1015.92 hPa